Time;durP1;ratioP1;P1;durP2;ratioP2;P2;SDS_P1;SDS_P2;PMS_P1;PMS_P2;Temp;Humidity;BMP_temperature;BMP_pressure;BME280_temperature;BME280_humidity;BME280_pressure;Samples;Min_cycle;Max_cycle;Signal;HPM_P1;HPM_P2
2021/06/26 00:00:36;;;;;;;;;;;20.60;60.20;;;;;;461809;257;1404;-46
2021/06/26 00:02:37;;;;;;;;;;;20.60;60.20;;;;;;469751;253;1222;-46
2021/06/26 00:04:39;;;;;;;;;;;20.60;60.20;;;;;;469712;253;2200;-46
2021/06/26 00:06:40;;;;;;;;;;;20.60;60.20;;;;;;461512;254;1373;-46
2021/06/26 00:08:41;;;;;;;;;;;20.60;60.20;;;;;;469760;253;1074;-46
2021/06/26 00:10:43;;;;;;;;;;;20.60;60.20;;;;;;470102;253;1189;-46
2021/06/26 00:12:44;;;;;;;;;;;20.60;60.20;;;;;;461594;257;1112;-46
2021/06/26 00:14:45;;;;;;;;;;;20.60;60.30;;;;;;469768;253;1095;-46
2021/06/26 00:16:47;;;;;;;;;;;20.60;60.20;;;;;;470102;253;1474;-46
2021/06/26 00:18:48;;;;;;;;;;;20.60;60.20;;;;;;461700;257;1201;-46
2021/06/26 00:20:49;;;;;;;;;;;20.60;60.30;;;;;;469921;253;1152;-46
2021/06/26 00:22:51;;;;;;;;;;;20.60;60.30;;;;;;469961;253;1604;-46
2021/06/26 00:24:52;;;;;;;;;;;20.60;60.30;;;;;;461614;257;2169;-46
2021/06/26 00:26:53;;;;;;;;;;;20.60;60.20;;;;;;469800;253;1220;-46
2021/06/26 00:28:55;;;;;;;;;;;20.60;60.20;;;;;;469776;253;1132;-46
2021/06/26 00:30:57;;;;;;;;;;;20.60;60.20;;;;;;461778;257;1117;-46
2021/06/26 00:32:58;;;;;;;;;;;20.60;60.20;;;;;;470115;253;1194;-46
2021/06/26 00:34:59;;;;;;;;;;;20.60;60.30;;;;;;470046;253;1179;-46
2021/06/26 00:37:01;;;;;;;;;;;20.60;60.30;;;;;;461707;257;1270;-46
2021/06/26 00:39:02;;;;;;;;;;;20.60;60.30;;;;;;469676;253;1096;-46
2021/06/26 00:41:04;;;;;;;;;;;20.60;60.20;;;;;;469634;253;1226;-46
2021/06/26 00:43:05;;;;;;;;;;;20.60;60.20;;;;;;461594;257;1194;-46
2021/06/26 00:45:06;;;;;;;;;;;20.60;60.20;;;;;;469846;253;2203;-46
2021/06/26 00:47:12;;;;;;;;;;;20.60;60.20;;;;;;469615;253;1251;-46
2021/06/26 00:49:12;;;;;;;;;;;20.60;60.20;;;;;;461981;257;1384;-46
2021/06/26 00:51:14;;;;;;;;;;;20.60;60.30;;;;;;469987;253;1208;-46
2021/06/26 00:53:15;;;;;;;;;;;20.60;60.30;;;;;;469962;253;1072;-46
2021/06/26 00:55:16;;;;;;;;;;;20.60;60.30;;;;;;461926;257;1056;-46
2021/06/26 00:57:18;;;;;;;;;;;20.60;60.30;;;;;;469662;253;1242;-46
2021/06/26 00:59:19;;;;;;;;;;;20.60;60.30;;;;;;469751;253;1116;-46
2021/06/26 01:01:20;;;;;;;;;;;20.60;60.50;;;;;;461484;258;1241;-46
2021/06/26 01:03:22;;;;;;;;;;;20.60;60.40;;;;;;470205;253;1207;-46
2021/06/26 01:05:23;;;;;;;;;;;20.60;60.40;;;;;;469950;253;2160;-46
2021/06/26 01:07:24;;;;;;;;;;;20.60;60.40;;;;;;461582;257;1490;-46
2021/06/26 01:09:26;;;;;;;;;;;20.60;60.40;;;;;;469810;253;1152;-46
2021/06/26 01:11:27;;;;;;;;;;;20.60;60.50;;;;;;470081;249;1219;-46
2021/06/26 01:13:29;;;;;;;;;;;20.60;60.40;;;;;;461953;257;1065;-46
2021/06/26 01:15:30;;;;;;;;;;;20.60;60.40;;;;;;469728;253;1994;-45
2021/06/26 01:17:31;;;;;;;;;;;20.60;60.50;;;;;;469764;253;1292;-46
2021/06/26 01:19:33;;;;;;;;;;;20.60;60.40;;;;;;461655;257;1163;-46
2021/06/26 01:21:34;;;;;;;;;;;20.60;60.50;;;;;;469827;253;1203;-46
2021/06/26 01:23:35;;;;;;;;;;;20.60;60.40;;;;;;469715;253;1044;-46
2021/06/26 01:25:37;;;;;;;;;;;20.60;60.40;;;;;;461781;257;2196;-46
2021/06/26 01:27:38;;;;;;;;;;;20.60;60.50;;;;;;469687;253;1176;-46
2021/06/26 01:29:41;;;;;;;;;;;20.60;60.50;;;;;;469967;254;1166;-45
2021/06/26 01:31:41;;;;;;;;;;;20.60;60.40;;;;;;461640;258;2235;-46
2021/06/26 01:33:42;;;;;;;;;;;20.60;60.40;;;;;;469908;253;1064;-46
2021/06/26 01:35:43;;;;;;;;;;;20.60;60.40;;;;;;470082;253;1169;-46
2021/06/26 01:37:45;;;;;;;;;;;20.60;60.40;;;;;;461893;257;1066;-46
2021/06/26 01:39:46;;;;;;;;;;;20.60;60.50;;;;;;469989;253;1047;-46
2021/06/26 01:41:47;;;;;;;;;;;20.60;60.50;;;;;;469747;253;1236;-46
2021/06/26 01:43:48;;;;;;;;;;;20.60;60.50;;;;;;462019;257;1075;-46
2021/06/26 01:45:50;;;;;;;;;;;20.60;60.50;;;;;;469805;253;2238;-46
2021/06/26 01:47:51;;;;;;;;;;;20.60;60.50;;;;;;469697;253;1076;-46
2021/06/26 01:49:52;;;;;;;;;;;20.60;60.50;;;;;;461832;257;1087;-46
2021/06/26 01:51:54;;;;;;;;;;;20.60;60.50;;;;;;470125;253;1081;-46
2021/06/26 01:53:55;;;;;;;;;;;20.60;60.40;;;;;;469920;253;1601;-46
2021/06/26 01:55:56;;;;;;;;;;;20.60;60.50;;;;;;461649;257;1290;-46
2021/06/26 01:57:58;;;;;;;;;;;20.60;60.40;;;;;;469761;253;1279;-46
2021/06/26 01:59:59;;;;;;;;;;;20.60;60.30;;;;;;469888;253;1057;-46
2021/06/26 02:02:00;;;;;;;;;;;20.60;60.50;;;;;;461496;258;1237;-46
2021/06/26 02:04:02;;;;;;;;;;;20.60;60.50;;;;;;470094;253;1087;-46
2021/06/26 02:06:03;;;;;;;;;;;20.60;60.40;;;;;;469928;253;2152;-46
2021/06/26 02:08:04;;;;;;;;;;;20.60;60.30;;;;;;461570;258;1810;-46
2021/06/26 02:10:06;;;;;;;;;;;20.60;60.40;;;;;;470220;253;1059;-46
2021/06/26 02:12:07;;;;;;;;;;;20.60;60.30;;;;;;469840;253;1200;-46
2021/06/26 02:14:08;;;;;;;;;;;20.60;60.30;;;;;;461802;257;1160;-46
2021/06/26 02:16:10;;;;;;;;;;;20.60;60.40;;;;;;469707;253;1107;-46
2021/06/26 02:18:11;;;;;;;;;;;20.60;60.50;;;;;;470026;253;1070;-46
2021/06/26 02:20:12;;;;;;;;;;;20.60;60.50;;;;;;461994;257;1144;-46
2021/06/26 02:22:14;;;;;;;;;;;20.60;60.50;;;;;;469612;253;1192;-46
2021/06/26 02:24:15;;;;;;;;;;;20.60;60.50;;;;;;469784;253;1117;-46
2021/06/26 02:26:16;;;;;;;;;;;20.60;60.50;;;;;;461459;258;2199;-46
2021/06/26 02:28:18;;;;;;;;;;;20.60;60.30;;;;;;469695;253;1178;-46
2021/06/26 02:30:19;;;;;;;;;;;20.60;60.30;;;;;;469953;253;1072;-46
2021/06/26 02:32:20;;;;;;;;;;;20.60;60.50;;;;;;461625;257;1266;-46
2021/06/26 02:34:22;;;;;;;;;;;20.60;60.50;;;;;;469903;253;1108;-46
2021/06/26 02:36:23;;;;;;;;;;;20.60;60.50;;;;;;469856;253;1432;-46
2021/06/26 02:38:24;;;;;;;;;;;20.60;60.40;;;;;;461489;258;1086;-46
2021/06/26 02:40:26;;;;;;;;;;;20.60;60.30;;;;;;469689;253;1148;-46
2021/06/26 02:42:27;;;;;;;;;;;20.60;60.30;;;;;;469704;253;1197;-46
2021/06/26 02:44:28;;;;;;;;;;;20.60;60.30;;;;;;461612;258;1102;-45
2021/06/26 02:46:30;;;;;;;;;;;20.60;60.40;;;;;;470073;253;2128;-46
2021/06/26 02:48:31;;;;;;;;;;;20.60;60.30;;;;;;470150;253;1303;-46
2021/06/26 02:50:32;;;;;;;;;;;20.60;60.50;;;;;;461598;258;1227;-46
2021/06/26 02:52:33;;;;;;;;;;;20.60;60.40;;;;;;469699;253;1121;-45
2021/06/26 02:54:35;;;;;;;;;;;20.60;60.30;;;;;;469708;253;1064;-46
2021/06/26 02:56:36;;;;;;;;;;;20.60;60.40;;;;;;461458;258;1379;-46
2021/06/26 02:58:38;;;;;;;;;;;20.60;60.30;;;;;;469915;253;1167;-46
2021/06/26 03:00:39;;;;;;;;;;;20.60;60.30;;;;;;469777;253;1152;-46
2021/06/26 03:02:41;;;;;;;;;;;20.60;60.50;;;;;;461601;257;1099;-46
2021/06/26 03:04:42;;;;;;;;;;;20.60;60.50;;;;;;469923;253;2195;-46
2021/06/26 03:06:43;;;;;;;;;;;20.60;60.50;;;;;;470135;253;1359;-45
2021/06/26 03:08:44;;;;;;;;;;;20.60;60.50;;;;;;461810;257;1063;-46
2021/06/26 03:10:46;;;;;;;;;;;20.60;60.50;;;;;;469736;253;1172;-46
2021/06/26 03:12:47;;;;;;;;;;;20.60;60.50;;;;;;469718;253;1144;-46
2021/06/26 03:14:48;;;;;;;;;;;20.60;60.50;;;;;;461859;257;1271;-46
2021/06/26 03:16:50;;;;;;;;;;;20.60;60.40;;;;;;470124;253;1145;-45
2021/06/26 03:18:51;;;;;;;;;;;20.60;60.50;;;;;;470102;253;1105;-46
2021/06/26 03:20:52;;;;;;;;;;;20.60;60.50;;;;;;461886;257;1257;-46
2021/06/26 03:22:54;;;;;;;;;;;20.60;60.40;;;;;;470152;253;1289;-46
2021/06/26 03:24:55;;;;;;;;;;;20.60;60.40;;;;;;470033;253;2208;-46
2021/06/26 03:26:56;;;;;;;;;;;20.60;60.30;;;;;;461625;257;1426;-46
2021/06/26 03:28:58;;;;;;;;;;;20.60;60.40;;;;;;469909;253;1251;-46
2021/06/26 03:30:59;;;;;;;;;;;20.60;60.40;;;;;;470095;253;1200;-46
2021/06/26 03:33:01;;;;;;;;;;;20.60;60.50;;;;;;461543;258;1357;-46
2021/06/26 03:35:02;;;;;;;;;;;20.60;60.40;;;;;;469850;253;1087;-46
2021/06/26 03:37:04;;;;;;;;;;;20.60;60.40;;;;;;470052;253;1207;-45
2021/06/26 03:39:05;;;;;;;;;;;20.60;60.40;;;;;;461776;257;1126;-46
2021/06/26 03:41:06;;;;;;;;;;;20.60;60.40;;;;;;469752;253;1368;-46
2021/06/26 03:43:07;;;;;;;;;;;20.60;60.40;;;;;;469723;253;1269;-46
2021/06/26 03:45:09;;;;;;;;;;;20.60;60.50;;;;;;461763;257;2149;-45
2021/06/26 03:47:10;;;;;;;;;;;20.60;60.50;;;;;;469625;253;1534;-46
2021/06/26 03:49:11;;;;;;;;;;;20.60;60.40;;;;;;469868;253;1082;-46
2021/06/26 03:51:13;;;;;;;;;;;20.60;60.30;;;;;;461696;257;1403;-46
2021/06/26 03:53:14;;;;;;;;;;;20.60;60.30;;;;;;469640;253;1111;-46
2021/06/26 03:55:15;;;;;;;;;;;20.60;60.30;;;;;;459775;256;1090;-46
2021/06/26 03:57:17;;;;;;;;;;;20.60;60.30;;;;;;459929;259;1226;-46
2021/06/26 03:59:18;;;;;;;;;;;20.60;60.30;;;;;;459874;259;1100;-46
2021/06/26 04:01:19;;;;;;;;;;;20.60;60.30;;;;;;478070;248;1167;-46
2021/06/26 04:03:21;;;;;;;;;;;20.60;60.50;;;;;;477612;249;1101;-46
2021/06/26 04:05:22;;;;;;;;;;;20.60;60.30;;;;;;477621;250;2196;-46
2021/06/26 04:07:23;;;;;;;;;;;20.60;60.40;;;;;;477764;249;1477;-46
2021/06/26 04:09:25;;;;;;;;;;;20.60;60.30;;;;;;477838;249;1040;-46
2021/06/26 04:11:26;;;;;;;;;;;20.60;60.30;;;;;;477899;249;1192;-46
2021/06/26 04:13:27;;;;;;;;;;;20.60;60.50;;;;;;477771;249;1104;-46
2021/06/26 04:15:29;;;;;;;;;;;20.60;60.40;;;;;;477690;249;1267;-45
2021/06/26 04:17:30;;;;;;;;;;;20.60;60.40;;;;;;477659;249;1328;-46
2021/06/26 04:19:31;;;;;;;;;;;20.60;60.40;;;;;;477958;249;1060;-46
2021/06/26 04:21:33;;;;;;;;;;;20.60;60.40;;;;;;477644;250;1251;-46
2021/06/26 04:23:34;;;;;;;;;;;20.50;60.40;;;;;;478056;249;1088;-46
2021/06/26 04:25:35;;;;;;;;;;;20.60;60.50;;;;;;477704;249;2128;-46
2021/06/26 04:27:37;;;;;;;;;;;20.60;60.40;;;;;;477752;249;1211;-46
2021/06/26 04:29:38;;;;;;;;;;;20.60;60.30;;;;;;477668;250;1174;-46
2021/06/26 04:31:39;;;;;;;;;;;20.60;60.30;;;;;;477646;246;1182;-46
2021/06/26 04:33:41;;;;;;;;;;;20.60;60.30;;;;;;477762;249;1030;-46
2021/06/26 04:35:42;;;;;;;;;;;20.60;60.40;;;;;;477667;250;980;-46
2021/06/26 04:37:43;;;;;;;;;;;20.60;60.30;;;;;;477800;249;1179;-46
2021/06/26 04:39:45;;;;;;;;;;;20.60;60.40;;;;;;477699;250;1057;-46
2021/06/26 04:41:46;;;;;;;;;;;20.60;60.30;;;;;;478073;249;1511;-46
2021/06/26 04:43:47;;;;;;;;;;;20.60;60.40;;;;;;477692;250;1056;-46
2021/06/26 04:45:49;;;;;;;;;;;20.50;60.40;;;;;;477697;249;2151;-46
2021/06/26 04:47:50;;;;;;;;;;;20.60;60.50;;;;;;478103;249;1149;-46
2021/06/26 04:49:51;;;;;;;;;;;20.50;60.40;;;;;;477670;250;1056;-46
2021/06/26 04:51:52;;;;;;;;;;;20.60;60.40;;;;;;478094;249;1415;-46
2021/06/26 04:53:54;;;;;;;;;;;20.60;60.40;;;;;;477687;249;1142;-46
2021/06/26 04:55:55;;;;;;;;;;;20.60;60.50;;;;;;477780;249;1188;-46
2021/06/26 04:57:56;;;;;;;;;;;20.60;60.40;;;;;;477865;249;1071;-46
2021/06/26 04:59:58;;;;;;;;;;;20.60;60.50;;;;;;477928;249;1162;-46
2021/06/26 05:01:59;;;;;;;;;;;20.50;60.40;;;;;;477852;249;1090;-46
2021/06/26 05:04:00;;;;;;;;;;;20.60;60.50;;;;;;477749;249;1094;-46
2021/06/26 05:06:02;;;;;;;;;;;20.50;60.40;;;;;;477644;249;2164;-46
2021/06/26 05:08:03;;;;;;;;;;;20.60;60.40;;;;;;477642;250;1144;-46
2021/06/26 05:10:04;;;;;;;;;;;20.60;60.50;;;;;;478126;249;1092;-46
2021/06/26 05:12:06;;;;;;;;;;;20.60;60.30;;;;;;478057;249;1326;-46
2021/06/26 05:14:07;;;;;;;;;;;20.60;60.50;;;;;;478073;249;1085;-46
2021/06/26 05:16:08;;;;;;;;;;;20.60;60.50;;;;;;477584;250;1154;-46
2021/06/26 05:18:10;;;;;;;;;;;20.60;60.50;;;;;;477871;249;1182;-46
2021/06/26 05:20:14;;;;;;;;;;;20.50;60.40;;;;;;478034;249;1067;-46
2021/06/26 05:22:13;;;;;;;;;;;20.50;60.40;;;;;;477523;249;2083;-46
2021/06/26 05:24:15;;;;;;;;;;;20.50;60.50;;;;;;477658;250;1057;-46
2021/06/26 05:26:16;;;;;;;;;;;20.60;60.50;;;;;;477584;250;2188;-46
2021/06/26 05:28:17;;;;;;;;;;;20.60;60.40;;;;;;477951;249;1067;-46
2021/06/26 05:30:19;;;;;;;;;;;20.60;60.30;;;;;;477683;249;1190;-46
2021/06/26 05:32:20;;;;;;;;;;;20.60;60.40;;;;;;477668;249;1049;-46
2021/06/26 05:34:21;;;;;;;;;;;20.50;60.40;;;;;;477912;249;1228;-46
2021/06/26 05:36:23;;;;;;;;;;;20.50;60.40;;;;;;477602;249;1073;-46
2021/06/26 05:38:24;;;;;;;;;;;20.50;60.40;;;;;;477725;249;1007;-46
2021/06/26 05:40:25;;;;;;;;;;;20.60;60.50;;;;;;477728;249;1124;-46
2021/06/26 05:42:27;;;;;;;;;;;20.60;60.50;;;;;;477635;250;1056;-46
2021/06/26 05:44:28;;;;;;;;;;;20.60;60.50;;;;;;477975;249;1138;-46
2021/06/26 05:46:29;;;;;;;;;;;20.60;60.50;;;;;;477710;249;2175;-46
2021/06/26 05:48:31;;;;;;;;;;;20.60;60.30;;;;;;478098;249;1052;-46
2021/06/26 05:50:32;;;;;;;;;;;20.50;60.30;;;;;;477798;249;1079;-46
2021/06/26 05:52:33;;;;;;;;;;;20.50;60.40;;;;;;477818;249;1195;-46
2021/06/26 05:54:35;;;;;;;;;;;20.60;60.50;;;;;;477671;250;1094;-46
2021/06/26 05:56:36;;;;;;;;;;;20.60;60.40;;;;;;477625;250;1434;-46
2021/06/26 05:58:37;;;;;;;;;;;20.60;60.40;;;;;;477757;249;1060;-46
2021/06/26 06:00:39;;;;;;;;;;;20.60;60.40;;;;;;477653;250;1262;-46
2021/06/26 06:02:40;;;;;;;;;;;20.50;60.40;;;;;;477626;249;1126;-46
2021/06/26 06:04:41;;;;;;;;;;;20.50;60.50;;;;;;477817;249;1064;-46
2021/06/26 06:06:43;;;;;;;;;;;20.60;60.50;;;;;;477695;249;2199;-46
2021/06/26 06:08:44;;;;;;;;;;;20.50;60.40;;;;;;478114;249;1066;-46
2021/06/26 06:10:46;;;;;;;;;;;20.60;60.50;;;;;;477910;249;1014;-46
2021/06/26 06:12:47;;;;;;;;;;;20.50;60.40;;;;;;477648;250;1180;-46
2021/06/26 06:14:48;;;;;;;;;;;20.60;60.30;;;;;;477698;250;1252;-46
2021/06/26 06:16:50;;;;;;;;;;;20.60;60.30;;;;;;477683;245;1228;-46
2021/06/26 06:18:51;;;;;;;;;;;20.60;60.30;;;;;;478087;249;1056;-46
2021/06/26 06:20:52;;;;;;;;;;;20.50;60.40;;;;;;477648;249;1274;-46
2021/06/26 06:22:54;;;;;;;;;;;20.50;60.40;;;;;;477562;250;1142;-46
2021/06/26 06:24:55;;;;;;;;;;;20.60;60.40;;;;;;477902;249;1137;-46
2021/06/26 06:26:56;;;;;;;;;;;20.60;60.50;;;;;;477725;249;2152;-46
2021/06/26 06:28:57;;;;;;;;;;;20.50;60.40;;;;;;477689;250;1031;-46
2021/06/26 06:31:00;;;;;;;;;;;20.50;60.50;;;;;;477599;250;1245;-46
2021/06/26 06:33:00;;;;;;;;;;;20.50;60.40;;;;;;477636;249;1322;-46
2021/06/26 06:35:02;;;;;;;;;;;20.50;60.50;;;;;;477986;249;962;-46
2021/06/26 06:37:03;;;;;;;;;;;20.50;60.50;;;;;;477996;249;1165;-46
2021/06/26 06:39:04;;;;;;;;;;;20.50;60.40;;;;;;478099;249;1036;-46
2021/06/26 06:41:05;;;;;;;;;;;20.60;60.50;;;;;;477875;249;1069;-46
2021/06/26 06:43:07;;;;;;;;;;;20.60;60.50;;;;;;477866;249;1032;-46
2021/06/26 06:45:08;;;;;;;;;;;20.60;60.50;;;;;;478132;249;1042;-46
2021/06/26 06:47:09;;;;;;;;;;;20.50;60.40;;;;;;477617;250;2204;-46
2021/06/26 06:49:11;;;;;;;;;;;20.60;60.40;;;;;;478074;249;1079;-46
2021/06/26 06:51:12;;;;;;;;;;;20.60;60.40;;;;;;478027;249;1114;-46
2021/06/26 06:53:13;;;;;;;;;;;20.50;60.50;;;;;;477642;250;1099;-46
2021/06/26 06:55:15;;;;;;;;;;;20.50;60.40;;;;;;477646;250;1069;-46
2021/06/26 06:57:20;;;;;;;;;;;20.60;60.40;;;;;;477694;249;1302;-46
2021/06/26 06:59:18;;;;;;;;;;;20.60;60.30;;;;;;477688;249;2341;-46
2021/06/26 07:01:19;;;;;;;;;;;20.60;60.30;;;;;;477673;249;1352;-46
2021/06/26 07:03:20;;;;;;;;;;;20.60;60.30;;;;;;477686;250;1039;-46
2021/06/26 07:05:22;;;;;;;;;;;20.60;60.30;;;;;;477692;250;1406;-46
2021/06/26 07:07:23;;;;;;;;;;;20.60;60.30;;;;;;477967;249;2136;-46
2021/06/26 07:09:26;;;;;;;;;;;20.60;60.40;;;;;;477727;249;1176;-46
2021/06/26 07:11:26;;;;;;;;;;;20.60;60.40;;;;;;477746;249;1854;-46
2021/06/26 07:13:27;;;;;;;;;;;20.60;60.40;;;;;;477659;250;1061;-46
2021/06/26 07:15:29;;;;;;;;;;;20.60;60.40;;;;;;478099;249;1122;-45
2021/06/26 07:17:30;;;;;;;;;;;20.50;60.30;;;;;;477717;249;1217;-46
2021/06/26 07:19:31;;;;;;;;;;;20.60;60.30;;;;;;477680;250;1092;-46
2021/06/26 07:21:33;;;;;;;;;;;20.60;60.40;;;;;;477593;250;1361;-46
2021/06/26 07:23:34;;;;;;;;;;;20.60;60.40;;;;;;477816;249;1092;-46
2021/06/26 07:25:35;;;;;;;;;;;20.60;60.30;;;;;;477864;249;1244;-46
2021/06/26 07:27:37;;;;;;;;;;;20.60;60.30;;;;;;477583;250;2152;-46
2021/06/26 07:29:38;;;;;;;;;;;20.60;60.30;;;;;;477663;250;1054;-46
2021/06/26 07:31:39;;;;;;;;;;;20.60;60.30;;;;;;477813;249;1298;-46
2021/06/26 07:33:41;;;;;;;;;;;20.60;60.30;;;;;;477952;249;1251;-46
2021/06/26 07:35:42;;;;;;;;;;;20.60;60.30;;;;;;477637;250;1180;-46
2021/06/26 07:37:43;;;;;;;;;;;20.60;60.20;;;;;;477622;250;1204;-46
2021/06/26 07:39:45;;;;;;;;;;;20.60;60.30;;;;;;477682;250;1096;-46
2021/06/26 07:41:46;;;;;;;;;;;20.60;60.30;;;;;;478060;249;1180;-46
2021/06/26 07:43:47;;;;;;;;;;;20.60;60.40;;;;;;477858;249;1112;-46
2021/06/26 07:45:49;;;;;;;;;;;20.50;60.30;;;;;;477643;250;1293;-46
2021/06/26 07:47:50;;;;;;;;;;;20.60;60.40;;;;;;477613;250;2161;-46
2021/06/26 07:49:51;;;;;;;;;;;20.60;60.40;;;;;;478105;249;1073;-46
2021/06/26 07:51:53;;;;;;;;;;;20.60;60.30;;;;;;477963;249;1500;-45
2021/06/26 07:53:54;;;;;;;;;;;20.50;60.40;;;;;;477627;250;1059;-46
2021/06/26 07:55:55;;;;;;;;;;;20.60;60.50;;;;;;477742;249;1253;-46
2021/06/26 07:57:57;;;;;;;;;;;20.60;60.30;;;;;;477563;250;1201;-46
2021/06/26 07:59:58;;;;;;;;;;;20.60;60.30;;;;;;478126;249;1070;-46
2021/06/26 08:01:59;;;;;;;;;;;20.60;60.40;;;;;;477629;249;1359;-46
2021/06/26 08:04:02;;;;;;;;;;;20.60;60.30;;;;;;478099;249;1037;-46
2021/06/26 08:06:02;;;;;;;;;;;20.60;60.30;;;;;;477910;249;2332;-46
2021/06/26 08:08:03;;;;;;;;;;;20.60;60.30;;;;;;477746;249;2140;-46
2021/06/26 08:10:04;;;;;;;;;;;20.60;60.30;;;;;;478121;249;1078;-46
2021/06/26 08:12:06;;;;;;;;;;;20.60;60.40;;;;;;478044;249;1331;-46
2021/06/26 08:14:08;;;;;;;;;;;20.60;60.40;;;;;;477657;250;1158;-45
2021/06/26 08:16:08;;;;;;;;;;;20.60;60.40;;;;;;477589;250;1971;-46
2021/06/26 08:18:10;;;;;;;;;;;20.50;60.30;;;;;;477732;249;1143;-46
2021/06/26 08:20:11;;;;;;;;;;;20.50;60.30;;;;;;477840;249;1029;-46
2021/06/26 08:22:12;;;;;;;;;;;20.60;60.50;;;;;;477662;249;1174;-46
2021/06/26 08:24:14;;;;;;;;;;;20.50;60.40;;;;;;477656;250;1055;-46
2021/06/26 08:26:15;;;;;;;;;;;20.50;60.40;;;;;;477593;250;1319;-46
2021/06/26 08:28:16;;;;;;;;;;;20.60;60.40;;;;;;477738;249;2144;-46
2021/06/26 08:30:18;;;;;;;;;;;20.60;60.40;;;;;;478017;249;1135;-46
2021/06/26 08:32:19;;;;;;;;;;;20.60;60.30;;;;;;477648;249;1270;-46
2021/06/26 08:34:20;;;;;;;;;;;20.50;60.40;;;;;;477844;249;1061;-46
2021/06/26 08:36:22;;;;;;;;;;;20.60;60.40;;;;;;477618;246;1365;-46
2021/06/26 08:38:23;;;;;;;;;;;20.60;60.30;;;;;;478102;249;1085;-46
2021/06/26 08:40:24;;;;;;;;;;;20.60;60.40;;;;;;477787;249;1348;-46
2021/06/26 08:42:26;;;;;;;;;;;20.60;60.30;;;;;;477706;249;1152;-46
2021/06/26 08:44:27;;;;;;;;;;;20.60;60.40;;;;;;477662;250;1081;-46
2021/06/26 08:46:28;;;;;;;;;;;20.60;60.30;;;;;;477702;249;1136;-45
2021/06/26 08:48:30;;;;;;;;;;;20.50;60.20;;;;;;477640;249;2195;-46
2021/06/26 08:50:31;;;;;;;;;;;20.60;60.30;;;;;;477868;249;1123;-46
2021/06/26 08:52:32;;;;;;;;;;;20.50;60.30;;;;;;477502;250;1314;-46
2021/06/26 08:54:34;;;;;;;;;;;20.60;60.30;;;;;;478024;249;1082;-46
2021/06/26 08:56:35;;;;;;;;;;;20.60;60.30;;;;;;477586;249;1522;-46
2021/06/26 08:58:36;;;;;;;;;;;20.60;60.20;;;;;;477598;250;1077;-46
2021/06/26 09:00:37;;;;;;;;;;;20.60;60.30;;;;;;477724;249;1082;-46
2021/06/26 09:02:39;;;;;;;;;;;20.60;60.30;;;;;;477585;249;1218;-46
2021/06/26 09:04:40;;;;;;;;;;;20.60;60.30;;;;;;477599;250;1048;-46
2021/06/26 09:06:41;;;;;;;;;;;20.60;60.30;;;;;;477531;250;1560;-46
2021/06/26 09:08:43;;;;;;;;;;;20.60;60.30;;;;;;477751;249;2180;-46
2021/06/26 09:10:44;;;;;;;;;;;20.60;60.30;;;;;;477958;249;1586;-46
2021/06/26 09:12:46;;;;;;;;;;;20.60;60.30;;;;;;477634;249;1266;-46
2021/06/26 09:14:47;;;;;;;;;;;20.50;60.30;;;;;;478072;249;1048;-46
2021/06/26 09:16:48;;;;;;;;;;;20.50;60.40;;;;;;477688;249;1264;-46
2021/06/26 09:18:49;;;;;;;;;;;20.60;60.30;;;;;;477640;249;1226;-46
2021/06/26 09:20:53;;;;;;;;;;;20.60;60.30;;;;;;477811;249;1101;-46
2021/06/26 09:22:54;;;;;;;;;;;20.50;60.30;;;;;;477558;249;1376;-46
2021/06/26 09:24:53;;;;;;;;;;;20.60;60.40;;;;;;477806;249;2509;-46
2021/06/26 09:26:55;;;;;;;;;;;20.60;60.30;;;;;;477589;250;2199;-46
2021/06/26 09:28:56;;;;;;;;;;;20.60;60.40;;;;;;477637;250;1147;-46
2021/06/26 09:30:58;;;;;;;;;;;20.50;60.30;;;;;;477557;250;1249;-46
2021/06/26 09:32:59;;;;;;;;;;;20.50;60.30;;;;;;477583;250;1219;-46
2021/06/26 09:35:00;;;;;;;;;;;20.50;60.30;;;;;;477632;250;1083;-46
2021/06/26 09:37:02;;;;;;;;;;;20.50;60.40;;;;;;477894;249;1222;-46
2021/06/26 09:39:06;;;;;;;;;;;20.60;60.30;;;;;;477694;249;1232;-46
2021/06/26 09:41:04;;;;;;;;;;;20.50;60.30;;;;;;477632;249;2214;-46
2021/06/26 09:43:06;;;;;;;;;;;20.50;60.40;;;;;;478074;249;1042;-46
2021/06/26 09:45:07;;;;;;;;;;;20.50;60.50;;;;;;477692;249;1038;-46
2021/06/26 09:47:15;;;;;;;;;;;20.50;60.40;;;;;;477852;249;2164;-46
2021/06/26 09:49:10;;;;;;;;;;;20.50;60.40;;;;;;477846;249;2132;-46
2021/06/26 09:51:11;;;;;;;;;;;20.50;60.40;;;;;;477605;250;1517;-46
2021/06/26 09:53:12;;;;;;;;;;;20.50;60.50;;;;;;478090;249;1067;-46
2021/06/26 09:55:14;;;;;;;;;;;20.60;60.40;;;;;;478036;249;1085;-46
2021/06/26 09:57:15;;;;;;;;;;;20.60;60.50;;;;;;477987;249;1202;-46
2021/06/26 09:59:17;;;;;;;;;;;20.50;60.50;;;;;;477999;249;1321;-46
2021/06/26 10:01:18;;;;;;;;;;;20.50;60.40;;;;;;477566;250;1175;-46
2021/06/26 10:03:20;;;;;;;;;;;20.50;60.40;;;;;;477912;249;1262;-46
2021/06/26 10:05:21;;;;;;;;;;;20.50;60.40;;;;;;477627;250;1408;-46
2021/06/26 10:07:22;;;;;;;;;;;20.50;60.40;;;;;;477596;250;2136;-46
2021/06/26 10:09:24;;;;;;;;;;;20.50;60.50;;;;;;477775;249;1073;-46
2021/06/26 10:11:25;;;;;;;;;;;20.50;60.50;;;;;;477992;249;1214;-46
2021/06/26 10:13:26;;;;;;;;;;;20.50;60.40;;;;;;478066;249;1094;-46
2021/06/26 10:15:28;;;;;;;;;;;20.60;60.30;;;;;;477743;249;1134;-46
2021/06/26 10:17:29;;;;;;;;;;;20.50;60.40;;;;;;477681;249;1089;-46
2021/06/26 10:19:30;;;;;;;;;;;20.50;60.30;;;;;;477675;250;1261;-46
2021/06/26 10:21:32;;;;;;;;;;;20.50;60.40;;;;;;477591;250;1195;-46
2021/06/26 10:23:33;;;;;;;;;;;20.50;60.40;;;;;;478061;249;1228;-45
2021/06/26 10:25:35;;;;;;;;;;;20.50;60.50;;;;;;477688;246;1365;-46
2021/06/26 10:27:36;;;;;;;;;;;20.50;60.40;;;;;;477624;250;2155;-46
2021/06/26 10:29:37;;;;;;;;;;;20.50;60.40;;;;;;464312;256;1230;-46
2021/06/26 10:31:38;;;;;;;;;;;20.50;60.40;;;;;;462503;258;1522;-46
2021/06/26 10:33:40;;;;;;;;;;;20.50;60.40;;;;;;459189;260;1596;-46
2021/06/26 10:35:41;;;;;;;;;;;20.50;60.40;;;;;;466977;255;1431;-46
2021/06/26 10:37:42;;;;;;;;;;;20.50;60.40;;;;;;464695;254;1249;-46
2021/06/26 10:39:44;;;;;;;;;;;20.50;60.40;;;;;;467002;255;1037;-46
2021/06/26 10:41:45;;;;;;;;;;;20.50;60.40;;;;;;463135;257;1348;-46
2021/06/26 10:43:46;;;;;;;;;;;20.50;60.40;;;;;;462979;258;1115;-46
2021/06/26 10:45:48;;;;;;;;;;;20.50;60.40;;;;;;465917;254;1335;-46
2021/06/26 10:47:49;;;;;;;;;;;20.50;60.40;;;;;;467695;255;2203;-46
2021/06/26 10:49:50;;;;;;;;;;;20.50;60.40;;;;;;476423;250;1179;-46
2021/06/26 10:51:52;;;;;;;;;;;20.50;60.50;;;;;;468338;255;1274;-45
2021/06/26 10:53:53;;;;;;;;;;;20.50;60.40;;;;;;476617;250;1068;-46
2021/06/26 10:55:54;;;;;;;;;;;20.50;60.50;;;;;;465217;255;1539;-46
2021/06/26 10:57:56;;;;;;;;;;;20.50;60.40;;;;;;469676;253;1487;-46
2021/06/26 10:59:57;;;;;;;;;;;20.50;60.50;;;;;;469672;253;1127;-46
2021/06/26 11:01:58;;;;;;;;;;;20.50;60.50;;;;;;461509;258;1364;-46
2021/06/26 11:04:00;;;;;;;;;;;20.50;60.40;;;;;;469920;253;1016;-46
2021/06/26 11:06:01;;;;;;;;;;;20.50;60.40;;;;;;469713;253;1205;-46
2021/06/26 11:08:02;;;;;;;;;;;20.50;60.30;;;;;;461745;257;2224;-46
2021/06/26 11:10:04;;;;;;;;;;;20.50;60.30;;;;;;469776;253;1087;-46
2021/06/26 11:12:05;;;;;;;;;;;20.50;60.40;;;;;;469620;253;1351;-46
2021/06/26 11:14:06;;;;;;;;;;;20.50;60.30;;;;;;461642;257;1091;-46
2021/06/26 11:16:08;;;;;;;;;;;20.60;60.40;;;;;;469650;253;1164;-46
2021/06/26 11:18:09;;;;;;;;;;;20.50;60.30;;;;;;469995;253;1036;-45
2021/06/26 11:20:10;;;;;;;;;;;20.50;60.40;;;;;;461817;257;1185;-46
2021/06/26 11:22:12;;;;;;;;;;;20.50;60.50;;;;;;469723;253;1261;-46
2021/06/26 11:24:13;;;;;;;;;;;20.50;60.40;;;;;;470105;253;1375;-46
2021/06/26 11:26:14;;;;;;;;;;;20.50;60.40;;;;;;461423;257;1674;-46
2021/06/26 11:28:16;;;;;;;;;;;20.50;60.30;;;;;;470144;253;2160;-46
2021/06/26 11:30:17;;;;;;;;;;;20.50;60.40;;;;;;469962;253;1049;-46
2021/06/26 11:32:18;;;;;;;;;;;20.50;60.40;;;;;;461617;257;1217;-46
2021/06/26 11:34:20;;;;;;;;;;;20.50;60.40;;;;;;469869;253;1079;-46
2021/06/26 11:36:21;;;;;;;;;;;20.50;60.30;;;;;;469665;253;1334;-46
2021/06/26 11:38:22;;;;;;;;;;;20.50;60.50;;;;;;461708;257;1104;-46
2021/06/26 11:40:24;;;;;;;;;;;20.50;60.50;;;;;;470088;253;1195;-46
2021/06/26 11:42:26;;;;;;;;;;;20.50;60.40;;;;;;470014;253;1084;-46
2021/06/26 11:44:26;;;;;;;;;;;20.50;60.40;;;;;;461476;258;1932;-46
2021/06/26 11:46:27;;;;;;;;;;;20.50;60.50;;;;;;469552;253;1264;-46
2021/06/26 11:48:29;;;;;;;;;;;20.50;60.50;;;;;;470130;253;2148;-46
2021/06/26 11:50:30;;;;;;;;;;;20.50;60.40;;;;;;461504;258;1160;-46
2021/06/26 11:52:31;;;;;;;;;;;20.50;60.40;;;;;;469553;253;1217;-46
2021/06/26 11:54:33;;;;;;;;;;;20.50;60.40;;;;;;470085;253;1012;-46
2021/06/26 11:56:34;;;;;;;;;;;20.50;60.40;;;;;;461370;258;1414;-46